FYWE

Eros Airport

Windhoek, Namibia
TAF FYWE 232000Z 2321/2406 00000KT CAVOK
Issued Valid From Valid To
Apr-23 @ 20:00 UTC
(3 hours ago)
Apr-23 @ 21:00 UTC
(2 hours ago)
Apr-24 @ 06:00 UTC
(in 7 hours)
Apr-23 @ 21:00 to Apr-24 @ 06:00
TAF FYWE 232000Z 2321/2406 00000KT CAVOK
Visibility Clouds Conditions
10,000+ meters
  • No significant clouds
TAF FYWE 232000Z 2321/2406 00000KT CAVOK
Issued Apr-23 @ 20:00 UTC
(3 hours ago)
Valid From Apr-23 @ 21:00 UTC
(2 hours ago)
Valid To Apr-24 @ 06:00 UTC
(in 7 hours)
Apr-23 @ 21:00 - Apr-24 @ 06:00
Clouds
  • No significant clouds
Conditions